Time;durP1;ratioP1;P1;durP2;ratioP2;P2;SDS_P1;SDS_P2;PMS_P1;PMS_P2;Temp;Humidity;BMP_temperature;BMP_pressure;BME280_temperature;BME280_humidity;BME280_pressure;Samples;Min_cycle;Max_cycle;Signal;HPM_P1;HPM_P2
2022/07/26 00:00:22;;;;;;;0.00;0.00;;;;;;;;;;1742511;28;20202;-68
2022/07/26 00:01:13;;;;;;;0.00;0.00;;;;;;;;;;1746064;28;20213;-68
2022/07/26 00:02:05;;;;;;;0.00;0.00;;;;;;;;;;1746153;28;20222;-68
2022/07/26 00:02:57;;;;;;;0.00;0.00;;;;;;;;;;1743887;28;20218;-68
2022/07/26 00:03:49;;;;;;;0.00;0.00;;;;;;;;;;1746142;28;20915;-68
2022/07/26 00:04:41;;;;;;;0.00;0.00;;;;;;;;;;1745401;28;20213;-69
2022/07/26 00:05:35;;;;;;;0.00;0.00;;;;;;;;;;1744959;28;20324;-69
2022/07/26 00:06:27;;;;;;;0.10;0.10;;;;;;;;;;1744582;28;20225;-68
2022/07/26 00:07:19;;;;;;;0.00;0.00;;;;;;;;;;1746660;28;20206;-68
2022/07/26 00:08:10;;;;;;;0.00;0.00;;;;;;;;;;1745866;28;20675;-68
2022/07/26 00:09:04;;;;;;;0.00;0.00;;;;;;;;;;1746187;28;20204;-68
2022/07/26 00:09:55;;;;;;;0.00;0.00;;;;;;;;;;1749813;28;20198;-68
2022/07/26 00:10:49;;;;;;;0.00;0.00;;;;;;;;;;1745697;28;20321;-68
2022/07/26 00:11:40;;;;;;;0.00;0.00;;;;;;;;;;1745220;28;20210;-68
2022/07/26 00:12:32;;;;;;;0.00;0.00;;;;;;;;;;1747211;28;20218;-68
2022/07/26 00:13:23;;;;;;;0.00;0.00;;;;;;;;;;1750676;28;20516;-68
2022/07/26 00:14:15;;;;;;;0.00;0.00;;;;;;;;;;1744311;28;20265;-68
2022/07/26 00:15:08;;;;;;;0.00;0.00;;;;;;;;;;1745795;28;20222;-68
2022/07/26 00:16:00;;;;;;;0.00;0.00;;;;;;;;;;1745489;28;20252;-68
2022/07/26 00:16:51;;;;;;;0.00;0.00;;;;;;;;;;1748925;28;20241;-68
2022/07/26 00:17:43;;;;;;;0.00;0.00;;;;;;;;;;1746929;28;20218;-68
2022/07/26 00:18:35;;;;;;;0.00;0.00;;;;;;;;;;1749776;28;20434;-69
2022/07/26 00:19:27;;;;;;;0.00;0.00;;;;;;;;;;1747564;28;20632;-68
2022/07/26 00:20:18;;;;;;;0.00;0.00;;;;;;;;;;1743237;28;20206;-69
2022/07/26 00:21:10;;;;;;;0.00;0.00;;;;;;;;;;1747601;28;20198;-68
2022/07/26 00:23:12;;;;;;;0.00;0.00;;;;;;;;;;1744944;28;20332;-68
2022/07/26 00:24:06;;;;;;;0.00;0.00;;;;;;;;;;1744607;28;20206;-68
2022/07/26 00:24:58;;;;;;;0.00;0.00;;;;;;;;;;1750170;28;20213;-68
2022/07/26 00:25:49;;;;;;;0.00;0.00;;;;;;;;;;1745455;28;20237;-68
2022/07/26 00:26:41;;;;;;;0.00;0.00;;;;;;;;;;1746107;28;20203;-68
2022/07/26 00:27:35;;;;;;;0.00;0.00;;;;;;;;;;1747566;28;20553;-68
2022/07/26 00:28:27;;;;;;;0.00;0.00;;;;;;;;;;1744527;28;20677;-68
2022/07/26 00:29:19;;;;;;;0.00;0.00;;;;;;;;;;1747450;28;20202;-68
2022/07/26 00:30:11;;;;;;;0.00;0.00;;;;;;;;;;1744506;28;20203;-68
2022/07/26 00:31:03;;;;;;;0.00;0.00;;;;;;;;;;1746405;28;20668;-68
2022/07/26 00:31:55;;;;;;;0.00;0.00;;;;;;;;;;1745249;28;20765;-68
2022/07/26 00:32:46;;;;;;;0.00;0.00;;;;;;;;;;1747099;28;20214;-68
2022/07/26 00:33:39;;;;;;;0.00;0.00;;;;;;;;;;1745332;28;20210;-68
2022/07/26 00:34:30;;;;;;;0.00;0.00;;;;;;;;;;1746741;28;20214;-68
2022/07/26 00:35:22;;;;;;;0.00;0.00;;;;;;;;;;1748716;28;20201;-67
2022/07/26 00:36:13;;;;;;;0.00;0.00;;;;;;;;;;1744541;28;20668;-68
2022/07/26 00:37:05;;;;;;;0.00;0.00;;;;;;;;;;1748997;28;20670;-68
2022/07/26 00:37:57;;;;;;;0.00;0.00;;;;;;;;;;1745913;28;20244;-68
2022/07/26 00:38:49;;;;;;;0.00;0.00;;;;;;;;;;1746528;28;20301;-67
2022/07/26 00:39:42;;;;;;;0.00;0.00;;;;;;;;;;1743500;28;20215;-68
2022/07/26 00:40:34;;;;;;;0.00;0.00;;;;;;;;;;1746026;28;20245;-68
2022/07/26 00:41:26;;;;;;;0.00;0.00;;;;;;;;;;1744469;28;20210;-68
2022/07/26 00:42:18;;;;;;;0.00;0.00;;;;;;;;;;1747304;28;20234;-67
2022/07/26 00:43:09;;;;;;;0.00;0.00;;;;;;;;;;1744497;28;20229;-68
2022/07/26 00:44:01;;;;;;;0.00;0.00;;;;;;;;;;1745469;28;20972;-68
2022/07/26 00:44:52;;;;;;;0.00;0.00;;;;;;;;;;1744906;28;20210;-68
2022/07/26 00:45:45;;;;;;;0.00;0.00;;;;;;;;;;1745275;28;20284;-68
2022/07/26 00:46:36;;;;;;;0.00;0.00;;;;;;;;;;1744304;28;20218;-68
2022/07/26 00:47:28;;;;;;;0.00;0.00;;;;;;;;;;1744925;28;20233;-68
2022/07/26 00:48:19;;;;;;;0.00;0.00;;;;;;;;;;1749454;28;20262;-68
2022/07/26 00:49:12;;;;;;;0.00;0.00;;;;;;;;;;1745374;28;20206;-68
2022/07/26 00:50:08;;;;;;;0.00;0.00;;;;;;;;;;1745192;28;20207;-68
2022/07/26 00:51:01;;;;;;;0.00;0.00;;;;;;;;;;1745307;28;20291;-67
2022/07/26 00:51:52;;;;;;;0.00;0.00;;;;;;;;;;1744760;28;20263;-68
2022/07/26 00:52:45;;;;;;;0.00;0.00;;;;;;;;;;1744762;28;20911;-68
2022/07/26 00:53:36;;;;;;;0.00;0.00;;;;;;;;;;1744889;28;20206;-67
2022/07/26 00:54:28;;;;;;;0.00;0.00;;;;;;;;;;1744093;28;20203;-68
2022/07/26 00:55:21;;;;;;;0.00;0.00;;;;;;;;;;1743206;28;20214;-67
2022/07/26 00:56:14;;;;;;;0.00;0.00;;;;;;;;;;1742971;28;20218;-67
2022/07/26 00:57:06;;;;;;;0.00;0.00;;;;;;;;;;1739991;28;20218;-68
2022/07/26 00:58:00;;;;;;;0.00;0.00;;;;;;;;;;1737478;28;20213;-68
2022/07/26 00:58:51;;;;;;;0.00;0.00;;;;;;;;;;1740125;28;20680;-67
2022/07/26 00:59:43;;;;;;;0.00;0.00;;;;;;;;;;1737455;28;20211;-67
2022/07/26 01:00:34;;;;;;;0.00;0.00;;;;;;;;;;1738101;28;20254;-68
2022/07/26 01:01:26;;;;;;;0.00;0.00;;;;;;;;;;1738578;28;20206;-68
2022/07/26 01:02:18;;;;;;;0.00;0.00;;;;;;;;;;1739991;28;20818;-68
2022/07/26 01:03:10;;;;;;;0.00;0.00;;;;;;;;;;1736891;28;20206;-68
2022/07/26 01:04:01;;;;;;;0.00;0.00;;;;;;;;;;1734338;28;20235;-68
2022/07/26 01:04:53;;;;;;;0.00;0.00;;;;;;;;;;1737635;28;20216;-68
2022/07/26 01:05:45;;;;;;;0.00;0.00;;;;;;;;;;1737126;28;20238;-68
2022/07/26 01:06:37;;;;;;;0.00;0.00;;;;;;;;;;1736876;28;20278;-68
2022/07/26 01:07:28;;;;;;;0.00;0.00;;;;;;;;;;1742760;28;20214;-68
2022/07/26 01:08:20;;;;;;;0.00;0.00;;;;;;;;;;1736989;28;20967;-68
2022/07/26 01:09:11;;;;;;;0.00;0.00;;;;;;;;;;1744271;28;20554;-68
2022/07/26 01:10:10;;;;;;;0.00;0.00;;;;;;;;;;1740067;28;20204;-68
2022/07/26 01:11:03;;;;;;;0.00;0.00;;;;;;;;;;1735758;28;20247;-68
2022/07/26 01:11:56;;;;;;;0.00;0.00;;;;;;;;;;1737615;28;20864;-68
2022/07/26 01:12:47;;;;;;;0.00;0.00;;;;;;;;;;1740859;28;20680;-68
2022/07/26 01:13:46;;;;;;;0.00;0.00;;;;;;;;;;1736547;28;20250;-68
2022/07/26 01:14:37;;;;;;;0.00;0.00;;;;;;;;;;1738539;28;20598;-68
2022/07/26 01:15:29;;;;;;;0.00;0.00;;;;;;;;;;1738431;28;20599;-68
2022/07/26 01:16:20;;;;;;;0.00;0.00;;;;;;;;;;1737555;28;20222;-68
2022/07/26 01:17:12;;;;;;;0.00;0.00;;;;;;;;;;1740252;28;20218;-68
2022/07/26 01:18:07;;;;;;;0.00;0.00;;;;;;;;;;1735221;28;20561;-68
2022/07/26 01:18:59;;;;;;;0.00;0.00;;;;;;;;;;1739844;28;20199;-68
2022/07/26 01:19:51;;;;;;;0.00;0.00;;;;;;;;;;1737753;28;20234;-68
2022/07/26 01:20:44;;;;;;;0.00;0.00;;;;;;;;;;1733428;28;20304;-68
2022/07/26 01:21:36;;;;;;;0.00;0.00;;;;;;;;;;1737711;28;20215;-68
2022/07/26 01:22:29;;;;;;;0.00;0.00;;;;;;;;;;1742629;28;20356;-68
2022/07/26 01:23:20;;;;;;;0.00;0.00;;;;;;;;;;1737667;28;20257;-68
2022/07/26 01:24:12;;;;;;;0.00;0.00;;;;;;;;;;1739751;28;20219;-68
2022/07/26 01:25:04;;;;;;;0.00;0.00;;;;;;;;;;1738399;28;20211;-68
2022/07/26 01:25:56;;;;;;;0.00;0.00;;;;;;;;;;1740328;28;20317;-69
2022/07/26 01:26:47;;;;;;;0.00;0.00;;;;;;;;;;1739531;28;20228;-68
2022/07/26 01:27:39;;;;;;;0.00;0.00;;;;;;;;;;1742847;28;20207;-68
2022/07/26 01:28:34;;;;;;;0.00;0.00;;;;;;;;;;1738749;28;20522;-68
2022/07/26 01:29:27;;;;;;;0.00;0.00;;;;;;;;;;1738968;28;20212;-68
2022/07/26 01:30:18;;;;;;;0.00;0.00;;;;;;;;;;1738918;28;20513;-69
2022/07/26 01:31:10;;;;;;;0.00;0.00;;;;;;;;;;1740625;28;20214;-69
2022/07/26 01:32:02;;;;;;;0.00;0.00;;;;;;;;;;1743544;28;20614;-69
2022/07/26 01:32:57;;;;;;;0.00;0.00;;;;;;;;;;1740464;28;20260;-68
2022/07/26 01:33:48;;;;;;;0.00;0.00;;;;;;;;;;1738275;28;21075;-68
2022/07/26 01:34:41;;;;;;;0.00;0.00;;;;;;;;;;1738429;28;20207;-68
2022/07/26 01:35:34;;;;;;;0.00;0.00;;;;;;;;;;1737337;28;20306;-69
2022/07/26 01:36:26;;;;;;;0.00;0.00;;;;;;;;;;1736153;28;20800;-68
2022/07/26 01:37:18;;;;;;;0.00;0.00;;;;;;;;;;1739468;28;20211;-68
2022/07/26 01:38:10;;;;;;;0.00;0.00;;;;;;;;;;1735085;28;20211;-68
2022/07/26 01:39:02;;;;;;;0.00;0.00;;;;;;;;;;1737830;28;20207;-68
2022/07/26 01:39:54;;;;;;;0.00;0.00;;;;;;;;;;1737269;28;20207;-68
2022/07/26 01:40:45;;;;;;;0.00;0.00;;;;;;;;;;1743137;28;20600;-68
2022/07/26 01:41:37;;;;;;;0.00;0.00;;;;;;;;;;1737379;28;20218;-68
2022/07/26 01:42:29;;;;;;;0.10;0.10;;;;;;;;;;1742377;28;20210;-68
2022/07/26 01:43:21;;;;;;;0.00;0.00;;;;;;;;;;1737577;28;20222;-68
2022/07/26 01:44:12;;;;;;;0.00;0.00;;;;;;;;;;1742838;28;20557;-67
2022/07/26 01:45:05;;;;;;;0.00;0.00;;;;;;;;;;1740296;28;20649;-69
2022/07/26 01:45:56;;;;;;;0.00;0.00;;;;;;;;;;1740302;28;20257;-69
2022/07/26 01:46:48;;;;;;;0.00;0.00;;;;;;;;;;1735523;28;20207;-69
2022/07/26 01:47:39;;;;;;;0.00;0.00;;;;;;;;;;1739500;28;20276;-69
2022/07/26 01:48:31;;;;;;;0.00;0.00;;;;;;;;;;1738425;28;20218;-69
2022/07/26 01:49:23;;;;;;;0.00;0.00;;;;;;;;;;1740010;28;20207;-69
2022/07/26 01:50:15;;;;;;;0.00;0.00;;;;;;;;;;1735697;28;20701;-69
2022/07/26 01:51:06;;;;;;;0.00;0.00;;;;;;;;;;1739367;28;20249;-69
2022/07/26 01:51:58;;;;;;;0.00;0.00;;;;;;;;;;1737746;28;20272;-69
2022/07/26 01:52:51;;;;;;;0.00;0.00;;;;;;;;;;1738723;28;20269;-69
2022/07/26 01:53:44;;;;;;;0.00;0.00;;;;;;;;;;1738126;28;20215;-69
2022/07/26 01:54:35;;;;;;;0.00;0.00;;;;;;;;;;1736603;28;20214;-69
2022/07/26 01:55:28;;;;;;;0.00;0.00;;;;;;;;;;1741607;28;20268;-69
2022/07/26 01:56:19;;;;;;;0.00;0.00;;;;;;;;;;1744936;28;20232;-69
2022/07/26 01:57:11;;;;;;;0.00;0.00;;;;;;;;;;1747436;28;20202;-68
2022/07/26 01:58:03;;;;;;;0.00;0.00;;;;;;;;;;1750476;28;20214;-69
2022/07/26 01:58:56;;;;;;;0.00;0.00;;;;;;;;;;1752252;28;20198;-69
2022/07/26 01:59:47;;;;;;;0.00;0.00;;;;;;;;;;1744885;28;20210;-69
2022/07/26 02:00:39;;;;;;;0.00;0.00;;;;;;;;;;1744716;28;20246;-69
2022/07/26 02:01:30;;;;;;;0.00;0.00;;;;;;;;;;1744379;28;20272;-69
2022/07/26 02:02:22;;;;;;;0.00;0.00;;;;;;;;;;1745754;28;20210;-69
2022/07/26 02:03:14;;;;;;;0.00;0.00;;;;;;;;;;1743419;28;20264;-69
2022/07/26 02:04:06;;;;;;;0.00;0.00;;;;;;;;;;1746381;28;20280;-68
2022/07/26 02:04:57;;;;;;;0.00;0.00;;;;;;;;;;1743995;28;20272;-69
2022/07/26 02:05:49;;;;;;;0.00;0.00;;;;;;;;;;1743198;28;20248;-69
2022/07/26 02:06:40;;;;;;;0.00;0.00;;;;;;;;;;1749752;28;20267;-68
2022/07/26 02:07:34;;;;;;;0.00;0.00;;;;;;;;;;1749519;28;20210;-69
2022/07/26 02:08:28;;;;;;;0.00;0.00;;;;;;;;;;1749495;28;20292;-69
2022/07/26 02:09:19;;;;;;;0.00;0.00;;;;;;;;;;1748348;28;20292;-69
2022/07/26 02:10:12;;;;;;;0.00;0.00;;;;;;;;;;1746031;28;20513;-69
2022/07/26 02:11:04;;;;;;;0.00;0.00;;;;;;;;;;1745852;28;20670;-68
2022/07/26 02:11:56;;;;;;;0.00;0.00;;;;;;;;;;1745579;28;20306;-69
2022/07/26 02:12:47;;;;;;;0.00;0.00;;;;;;;;;;1746480;28;20210;-69
2022/07/26 02:13:40;;;;;;;0.00;0.00;;;;;;;;;;1744355;28;20211;-69
2022/07/26 02:14:31;;;;;;;0.00;0.00;;;;;;;;;;1743500;28;20207;-68
2022/07/26 02:15:23;;;;;;;0.00;0.00;;;;;;;;;;1742610;28;20198;-68
2022/07/26 02:16:14;;;;;;;0.00;0.00;;;;;;;;;;1744075;28;20723;-68
2022/07/26 02:17:14;;;;;;;0.00;0.00;;;;;;;;;;1745221;28;20632;-68
2022/07/26 02:18:06;;;;;;;0.00;0.00;;;;;;;;;;1744716;28;20234;-68
2022/07/26 02:18:58;;;;;;;0.00;0.00;;;;;;;;;;1746172;28;20207;-68
2022/07/26 02:19:50;;;;;;;0.00;0.00;;;;;;;;;;1743132;28;20214;-68
2022/07/26 02:20:43;;;;;;;0.00;0.00;;;;;;;;;;1741212;28;20230;-68
2022/07/26 02:21:34;;;;;;;0.00;0.00;;;;;;;;;;1745790;28;20214;-69
2022/07/26 02:22:26;;;;;;;0.00;0.00;;;;;;;;;;1745298;28;20209;-69
2022/07/26 02:23:17;;;;;;;0.00;0.00;;;;;;;;;;1749056;28;20205;-69
2022/07/26 02:24:11;;;;;;;0.00;0.00;;;;;;;;;;1745143;28;20287;-69
2022/07/26 02:25:03;;;;;;;0.00;0.00;;;;;;;;;;1746989;28;20194;-69
2022/07/26 02:25:56;;;;;;;0.00;0.00;;;;;;;;;;1744576;28;20238;-69
2022/07/26 02:26:47;;;;;;;0.00;0.00;;;;;;;;;;1749950;28;20260;-69
2022/07/26 02:27:39;;;;;;;0.00;0.00;;;;;;;;;;1748968;28;20300;-69
2022/07/26 02:28:30;;;;;;;0.00;0.00;;;;;;;;;;1749979;28;20274;-69
2022/07/26 02:29:23;;;;;;;0.00;0.00;;;;;;;;;;1749177;28;20202;-69
2022/07/26 02:30:14;;;;;;;0.00;0.00;;;;;;;;;;1738767;28;20225;-69
2022/07/26 02:31:06;;;;;;;0.00;0.00;;;;;;;;;;1749134;28;20617;-69
2022/07/26 02:31:58;;;;;;;0.00;0.00;;;;;;;;;;1749280;28;20213;-69
2022/07/26 02:32:50;;;;;;;0.00;0.00;;;;;;;;;;1749081;28;20674;-69
2022/07/26 02:33:41;;;;;;;0.00;0.00;;;;;;;;;;1744403;28;20640;-69
2022/07/26 02:34:34;;;;;;;0.00;0.00;;;;;;;;;;1748819;28;20579;-69
2022/07/26 02:35:25;;;;;;;0.00;0.00;;;;;;;;;;1747346;28;20205;-69
2022/07/26 02:36:17;;;;;;;0.00;0.00;;;;;;;;;;1747266;28;20632;-69
2022/07/26 02:37:08;;;;;;;0.00;0.00;;;;;;;;;;1747691;28;20202;-69
2022/07/26 02:38:04;;;;;;;0.00;0.00;;;;;;;;;;1747941;28;20237;-69
2022/07/26 02:38:55;;;;;;;0.00;0.00;;;;;;;;;;1746805;28;20662;-69
2022/07/26 02:39:49;;;;;;;0.00;0.00;;;;;;;;;;1744457;28;20293;-69
2022/07/26 02:40:41;;;;;;;0.00;0.00;;;;;;;;;;1747388;28;20237;-68
2022/07/26 02:41:33;;;;;;;0.00;0.00;;;;;;;;;;1743800;28;20226;-68
2022/07/26 02:42:24;;;;;;;0.00;0.00;;;;;;;;;;1747302;28;20656;-68
2022/07/26 02:43:17;;;;;;;0.00;0.00;;;;;;;;;;1750616;28;20633;-68
2022/07/26 02:44:08;;;;;;;0.00;0.00;;;;;;;;;;1748004;28;20225;-68
2022/07/26 02:45:00;;;;;;;0.00;0.00;;;;;;;;;;1750122;28;20209;-68
2022/07/26 02:45:51;;;;;;;0.00;0.00;;;;;;;;;;1747050;28;20242;-68
2022/07/26 02:46:44;;;;;;;0.00;0.00;;;;;;;;;;1749135;28;20216;-68
2022/07/26 02:47:35;;;;;;;0.00;0.00;;;;;;;;;;1745159;28;20214;-69
2022/07/26 02:48:27;;;;;;;0.00;0.00;;;;;;;;;;1743233;28;20229;-68
2022/07/26 02:49:18;;;;;;;0.00;0.00;;;;;;;;;;1744424;28;20692;-68
2022/07/26 02:50:10;;;;;;;0.00;0.00;;;;;;;;;;1747905;28;20202;-68
2022/07/26 02:51:02;;;;;;;0.00;0.00;;;;;;;;;;1747891;28;20638;-68
2022/07/26 02:51:53;;;;;;;0.00;0.00;;;;;;;;;;1750112;28;20275;-68
2022/07/26 02:52:46;;;;;;;0.00;0.00;;;;;;;;;;1744764;28;20206;-68
2022/07/26 02:53:38;;;;;;;0.00;0.00;;;;;;;;;;1750041;28;20206;-68
2022/07/26 02:54:30;;;;;;;0.00;0.00;;;;;;;;;;1745132;28;20206;-68
2022/07/26 02:55:23;;;;;;;0.00;0.00;;;;;;;;;;1744967;28;20237;-68
2022/07/26 02:56:15;;;;;;;0.00;0.00;;;;;;;;;;1751299;28;20198;-68
2022/07/26 02:57:07;;;;;;;0.00;0.00;;;;;;;;;;1746967;28;20286;-68
2022/07/26 02:57:59;;;;;;;0.00;0.00;;;;;;;;;;1749039;28;20730;-69
2022/07/26 02:58:50;;;;;;;0.00;0.00;;;;;;;;;;1752516;28;20209;-68
2022/07/26 02:59:42;;;;;;;0.00;0.00;;;;;;;;;;1744945;28;20642;-68
2022/07/26 03:00:34;;;;;;;0.00;0.00;;;;;;;;;;1743729;28;20238;-68
2022/07/26 03:01:26;;;;;;;0.00;0.00;;;;;;;;;;1744861;28;20297;-68
2022/07/26 03:02:17;;;;;;;0.00;0.00;;;;;;;;;;1746159;28;20206;-68
2022/07/26 03:03:12;;;;;;;0.00;0.00;;;;;;;;;;1744019;28;20527;-68
2022/07/26 03:04:06;;;;;;;0.00;0.00;;;;;;;;;;1739634;28;20495;-68
2022/07/26 03:05:01;;;;;;;0.00;0.00;;;;;;;;;;1748907;28;20206;-68
2022/07/26 03:05:53;;;;;;;0.00;0.00;;;;;;;;;;1746619;28;20628;-68
2022/07/26 03:06:46;;;;;;;0.00;0.00;;;;;;;;;;1749726;28;20201;-69
2022/07/26 03:07:37;;;;;;;0.00;0.00;;;;;;;;;;1747398;28;20214;-68
2022/07/26 03:08:29;;;;;;;0.00;0.00;;;;;;;;;;1749277;28;20206;-68
2022/07/26 03:09:20;;;;;;;0.00;0.00;;;;;;;;;;1747441;28;20205;-68
2022/07/26 03:10:12;;;;;;;0.00;0.00;;;;;;;;;;1747115;28;20202;-67
2022/07/26 03:11:05;;;;;;;0.00;0.00;;;;;;;;;;1745107;28;20191;-68
2022/07/26 03:11:57;;;;;;;0.00;0.00;;;;;;;;;;1745218;28;20203;-68
2022/07/26 03:12:49;;;;;;;0.00;0.00;;;;;;;;;;1745229;28;20268;-69
2022/07/26 03:13:41;;;;;;;0.00;0.00;;;;;;;;;;1743842;28;20631;-69
2022/07/26 03:14:32;;;;;;;0.00;0.00;;;;;;;;;;1748306;28;20305;-68
2022/07/26 03:15:25;;;;;;;0.00;0.00;;;;;;;;;;1747202;28;20281;-69
2022/07/26 03:16:16;;;;;;;0.00;0.00;;;;;;;;;;1747966;28;20206;-69
2022/07/26 03:17:08;;;;;;;0.00;0.00;;;;;;;;;;1745012;28;20216;-69
2022/07/26 03:18:00;;;;;;;0.00;0.00;;;;;;;;;;1744135;28;20206;-69
2022/07/26 03:18:52;;;;;;;0.00;0.00;;;;;;;;;;1744975;28;20715;-69
2022/07/26 03:19:43;;;;;;;0.00;0.00;;;;;;;;;;1744464;28;20214;-69
2022/07/26 03:20:35;;;;;;;0.00;0.00;;;;;;;;;;1734111;28;20238;-68
2022/07/26 03:21:26;;;;;;;0.00;0.00;;;;;;;;;;1747537;28;20206;-68
2022/07/26 03:22:19;;;;;;;0.00;0.00;;;;;;;;;;1746480;28;20702;-68
2022/07/26 03:23:10;;;;;;;0.00;0.00;;;;;;;;;;1742543;28;20806;-68
2022/07/26 03:24:02;;;;;;;0.00;0.00;;;;;;;;;;1745347;28;20866;-68
2022/07/26 03:24:53;;;;;;;0.00;0.00;;;;;;;;;;1745235;28;20251;-68
2022/07/26 03:25:46;;;;;;;0.00;0.00;;;;;;;;;;1744334;28;20233;-69
2022/07/26 03:26:38;;;;;;;0.00;0.00;;;;;;;;;;1743762;28;20344;-69
2022/07/26 03:27:30;;;;;;;0.00;0.00;;;;;;;;;;1744414;28;20218;-69
2022/07/26 03:28:22;;;;;;;0.00;0.00;;;;;;;;;;1748408;28;20262;-69
2022/07/26 03:29:14;;;;;;;0.00;0.00;;;;;;;;;;1747398;28;20404;-69
2022/07/26 03:30:06;;;;;;;0.00;0.00;;;;;;;;;;1749758;28;20201;-69
2022/07/26 03:30:58;;;;;;;0.00;0.00;;;;;;;;;;1745064;28;20607;-69
2022/07/26 03:31:49;;;;;;;0.00;0.00;;;;;;;;;;1743764;28;20214;-69
2022/07/26 03:32:41;;;;;;;0.00;0.00;;;;;;;;;;1745080;28;20202;-69
2022/07/26 03:33:32;;;;;;;0.00;0.00;;;;;;;;;;1749810;28;20563;-69
2022/07/26 03:34:25;;;;;;;0.00;0.00;;;;;;;;;;1746710;28;20628;-69
2022/07/26 03:35:16;;;;;;;0.00;0.00;;;;;;;;;;1747565;28;20210;-69
2022/07/26 03:36:09;;;;;;;0.00;0.00;;;;;;;;;;1747299;28;20830;-69
2022/07/26 03:37:01;;;;;;;0.00;0.00;;;;;;;;;;1744001;28;20221;-69
2022/07/26 03:37:53;;;;;;;0.00;0.00;;;;;;;;;;1744265;28;20981;-69
2022/07/26 03:38:44;;;;;;;0.00;0.00;;;;;;;;;;1744296;28;20214;-69
2022/07/26 03:39:37;;;;;;;0.00;0.00;;;;;;;;;;1745511;28;20233;-69
2022/07/26 03:40:28;;;;;;;0.00;0.00;;;;;;;;;;1745256;28;20253;-68
2022/07/26 03:41:20;;;;;;;0.00;0.00;;;;;;;;;;1745041;28;20202;-68
2022/07/26 03:42:14;;;;;;;0.00;0.00;;;;;;;;;;1745287;28;20214;-68
2022/07/26 03:43:07;;;;;;;0.00;0.00;;;;;;;;;;1748002;28;20635;-68
2022/07/26 03:43:58;;;;;;;0.00;0.00;;;;;;;;;;1745858;28;20343;-68
2022/07/26 03:44:50;;;;;;;0.00;0.00;;;;;;;;;;1749663;28;20321;-68
2022/07/26 03:45:41;;;;;;;0.00;0.00;;;;;;;;;;1748806;28;20241;-69
2022/07/26 03:46:33;;;;;;;0.00;0.00;;;;;;;;;;1743517;28;20272;-69
2022/07/26 03:47:25;;;;;;;0.00;0.00;;;;;;;;;;1742824;28;20210;-69
2022/07/26 03:48:17;;;;;;;0.00;0.00;;;;;;;;;;1742129;28;20233;-69
2022/07/26 03:49:08;;;;;;;0.00;0.00;;;;;;;;;;1745584;28;20298;-69
2022/07/26 03:50:00;;;;;;;0.00;0.00;;;;;;;;;;1749351;28;20202;-69
2022/07/26 03:50:51;;;;;;;0.00;0.00;;;;;;;;;;1745408;28;20242;-68
2022/07/26 03:51:44;;;;;;;0.00;0.00;;;;;;;;;;1749596;28;20656;-68
2022/07/26 03:52:35;;;;;;;0.00;0.00;;;;;;;;;;1747314;28;20215;-68
2022/07/26 03:53:27;;;;;;;0.00;0.00;;;;;;;;;;1749327;28;20713;-68
2022/07/26 03:54:18;;;;;;;0.00;0.00;;;;;;;;;;1746378;28;20225;-68
2022/07/26 03:56:30;;;;;;;0.00;0.00;;;;;;;;;;1741113;28;20766;-69
2022/07/26 03:57:22;;;;;;;0.00;0.00;;;;;;;;;;1739473;28;20210;-69
2022/07/26 03:58:14;;;;;;;0.00;0.00;;;;;;;;;;1735875;28;20211;-69
2022/07/26 03:59:07;;;;;;;0.00;0.00;;;;;;;;;;1744079;28;20197;-69
2022/07/26 03:59:58;;;;;;;0.00;0.00;;;;;;;;;;1736675;28;20203;-69
2022/07/26 04:00:50;;;;;;;0.00;0.00;;;;;;;;;;1736161;28;20246;-68
2022/07/26 04:01:41;;;;;;;0.00;0.00;;;;;;;;;;1739141;28;20238;-68
2022/07/26 04:02:34;;;;;;;0.00;0.00;;;;;;;;;;1742038;28;20310;-68
2022/07/26 04:03:25;;;;;;;0.00;0.00;;;;;;;;;;1736812;28;20220;-68
2022/07/26 04:04:18;;;;;;;0.00;0.00;;;;;;;;;;1741820;28;20780;-68
2022/07/26 04:05:09;;;;;;;0.00;0.00;;;;;;;;;;1735819;28;20231;-69
2022/07/26 04:06:02;;;;;;;0.00;0.00;;;;;;;;;;1737011;28;20242;-69
2022/07/26 04:06:55;;;;;;;0.00;0.00;;;;;;;;;;1737330;28;20226;-69
2022/07/26 04:07:47;;;;;;;0.00;0.00;;;;;;;;;;1735943;28;20218;-69
2022/07/26 04:08:38;;;;;;;0.00;0.00;;;;;;;;;;1739646;28;20211;-69
2022/07/26 04:09:31;;;;;;;0.00;0.00;;;;;;;;;;1739784;28;20214;-69
2022/07/26 04:10:24;;;;;;;0.00;0.00;;;;;;;;;;1736696;28;20211;-68
2022/07/26 04:11:16;;;;;;;0.00;0.00;;;;;;;;;;1737512;28;20209;-68
2022/07/26 04:12:07;;;;;;;0.00;0.00;;;;;;;;;;1738350;28;20203;-68
2022/07/26 04:13:01;;;;;;;0.00;0.00;;;;;;;;;;1736529;28;20207;-68
2022/07/26 04:13:52;;;;;;;0.00;0.00;;;;;;;;;;1737582;28;20211;-68
2022/07/26 04:14:44;;;;;;;0.00;0.00;;;;;;;;;;1736784;28;20211;-69
2022/07/26 04:15:38;;;;;;;0.00;0.00;;;;;;;;;;1736634;28;20740;-69
2022/07/26 04:16:30;;;;;;;0.00;0.00;;;;;;;;;;1736458;28;21070;-69
2022/07/26 04:17:22;;;;;;;0.00;0.00;;;;;;;;;;1737268;28;20206;-68
2022/07/26 04:18:14;;;;;;;0.00;0.00;;;;;;;;;;1734013;28;20574;-69
2022/07/26 04:19:05;;;;;;;0.00;0.00;;;;;;;;;;1739453;28;20568;-69
2022/07/26 04:19:57;;;;;;;0.00;0.00;;;;;;;;;;1736282;28;20200;-69
2022/07/26 04:20:48;;;;;;;0.00;0.00;;;;;;;;;;1739613;28;20611;-69
2022/07/26 04:21:41;;;;;;;0.00;0.00;;;;;;;;;;1736505;28;20216;-69
2022/07/26 04:22:32;;;;;;;0.00;0.00;;;;;;;;;;1740106;28;20211;-69
2022/07/26 04:23:24;;;;;;;0.00;0.00;;;;;;;;;;1739106;28;20203;-69
2022/07/26 04:24:16;;;;;;;0.00;0.00;;;;;;;;;;1738365;28;20207;-69
2022/07/26 04:25:09;;;;;;;0.00;0.00;;;;;;;;;;1740721;28;20242;-69
2022/07/26 04:26:01;;;;;;;0.00;0.00;;;;;;;;;;1729872;28;20231;-68
2022/07/26 04:26:53;;;;;;;0.00;0.00;;;;;;;;;;1743082;28;20242;-68
2022/07/26 04:27:44;;;;;;;0.00;0.00;;;;;;;;;;1739872;28;20207;-68
2022/07/26 04:28:38;;;;;;;0.00;0.00;;;;;;;;;;1737014;28;20298;-68
2022/07/26 04:29:29;;;;;;;0.00;0.00;;;;;;;;;;1738059;28;20222;-68
2022/07/26 04:30:21;;;;;;;0.00;0.00;;;;;;;;;;1734761;28;20203;-68
2022/07/26 04:31:12;;;;;;;0.00;0.00;;;;;;;;;;1738452;28;20276;-68
2022/07/26 04:32:05;;;;;;;0.00;0.00;;;;;;;;;;1737532;28;20245;-68
2022/07/26 04:32:56;;;;;;;0.00;0.00;;;;;;;;;;1737863;28;20301;-68
2022/07/26 04:33:48;;;;;;;0.00;0.00;;;;;;;;;;1739589;28;20213;-68
2022/07/26 04:34:39;;;;;;;0.00;0.00;;;;;;;;;;1735055;28;20207;-68
2022/07/26 04:35:32;;;;;;;0.00;0.00;;;;;;;;;;1736354;28;20557;-68
2022/07/26 04:36:24;;;;;;;0.00;0.00;;;;;;;;;;1737423;28;20207;-68
2022/07/26 04:37:16;;;;;;;0.00;0.00;;;;;;;;;;1739393;28;20660;-68
2022/07/26 04:38:08;;;;;;;0.00;0.00;;;;;;;;;;1734397;28;20580;-68
2022/07/26 04:38:59;;;;;;;0.00;0.00;;;;;;;;;;1738878;28;20282;-68
2022/07/26 04:39:51;;;;;;;0.00;0.00;;;;;;;;;;1736769;28;20560;-68
2022/07/26 04:40:42;;;;;;;0.00;0.00;;;;;;;;;;1737697;28;20234;-68
2022/07/26 04:41:35;;;;;;;0.00;0.00;;;;;;;;;;1738926;28;20781;-68
2022/07/26 04:42:26;;;;;;;0.00;0.00;;;;;;;;;;1742557;28;20210;-68
2022/07/26 04:43:18;;;;;;;0.00;0.00;;;;;;;;;;1735875;28;20261;-68
2022/07/26 04:44:11;;;;;;;0.00;0.00;;;;;;;;;;1740733;28;20348;-69
2022/07/26 04:45:04;;;;;;;0.00;0.00;;;;;;;;;;1736318;28;20203;-69
2022/07/26 04:45:56;;;;;;;0.00;0.00;;;;;;;;;;1738260;28;20243;-68
2022/07/26 04:46:48;;;;;;;0.00;0.00;;;;;;;;;;1736122;28;20208;-68
2022/07/26 04:47:40;;;;;;;0.00;0.00;;;;;;;;;;1739862;28;20214;-68
2022/07/26 04:48:33;;;;;;;0.00;0.00;;;;;;;;;;1739085;28;20214;-68
2022/07/26 04:49:24;;;;;;;0.00;0.00;;;;;;;;;;1738813;28;20844;-68
2022/07/26 04:50:17;;;;;;;0.00;0.00;;;;;;;;;;1735306;28;20229;-68
2022/07/26 04:51:09;;;;;;;0.00;0.00;;;;;;;;;;1738458;28;20265;-68
2022/07/26 04:52:00;;;;;;;0.00;0.00;;;;;;;;;;1739256;28;20207;-68
2022/07/26 04:52:53;;;;;;;0.00;0.00;;;;;;;;;;1739241;28;20211;-68
2022/07/26 04:53:44;;;;;;;0.00;0.00;;;;;;;;;;1738068;28;20326;-68
2022/07/26 04:54:36;;;;;;;0.00;0.00;;;;;;;;;;1740034;28;20641;-68
2022/07/26 04:55:28;;;;;;;0.00;0.00;;;;;;;;;;1736532;28;20242;-69
2022/07/26 04:56:20;;;;;;;0.00;0.00;;;;;;;;;;1742963;28;20275;-69
2022/07/26 04:57:11;;;;;;;0.00;0.00;;;;;;;;;;1747895;28;20211;-69
2022/07/26 04:58:03;;;;;;;0.00;0.00;;;;;;;;;;1747677;28;20206;-69
2022/07/26 04:58:55;;;;;;;0.00;0.00;;;;;;;;;;1750963;28;20205;-69
2022/07/26 04:59:48;;;;;;;0.00;0.00;;;;;;;;;;1744230;28;20202;-69
2022/07/26 05:00:40;;;;;;;0.00;0.00;;;;;;;;;;1740920;28;20242;-68
2022/07/26 05:01:32;;;;;;;0.00;0.00;;;;;;;;;;1746802;28;20241;-68
2022/07/26 05:02:23;;;;;;;0.00;0.00;;;;;;;;;;1747365;28;20625;-68
2022/07/26 05:03:16;;;;;;;0.00;0.00;;;;;;;;;;1743722;28;20207;-69
2022/07/26 05:04:07;;;;;;;0.00;0.00;;;;;;;;;;1746334;28;20203;-68
2022/07/26 05:04:59;;;;;;;0.00;0.00;;;;;;;;;;1747295;28;20213;-68
2022/07/26 05:05:50;;;;;;;0.00;0.00;;;;;;;;;;1745295;28;20276;-69
2022/07/26 05:06:43;;;;;;;0.00;0.00;;;;;;;;;;1750196;28;20206;-69
2022/07/26 05:07:39;;;;;;;0.00;0.00;;;;;;;;;;1750218;28;20209;-69
2022/07/26 05:08:31;;;;;;;0.00;0.00;;;;;;;;;;1750561;28;20241;-69
2022/07/26 05:09:22;;;;;;;0.00;0.00;;;;;;;;;;1746600;28;20214;-69
2022/07/26 05:10:15;;;;;;;0.00;0.00;;;;;;;;;;1744776;28;20213;-68
2022/07/26 05:11:06;;;;;;;0.00;0.00;;;;;;;;;;1744207;28;20761;-68
2022/07/26 05:11:58;;;;;;;0.00;0.00;;;;;;;;;;1745992;28;20205;-69
2022/07/26 05:12:50;;;;;;;0.00;0.00;;;;;;;;;;1746661;28;20275;-68
2022/07/26 05:13:42;;;;;;;0.00;0.00;;;;;;;;;;1744883;28;20210;-68
2022/07/26 05:14:33;;;;;;;0.00;0.00;;;;;;;;;;1745861;28;20210;-68